sensor_id;sensor_type;location;lat;lon;timestamp;pressure;altitude;pressure_sealevel;temperature
67509;BMP280;54354;44.724;11.284;2023-08-08T00:02:20;101555.19;;;26.11
67509;BMP280;54354;44.724;11.284;2023-08-08T00:04:45;101548.31;;;26.10
67509;BMP280;54354;44.724;11.284;2023-08-08T00:07:11;101548.03;;;26.08
67509;BMP280;54354;44.724;11.284;2023-08-08T00:09:37;101550.28;;;26.04
67509;BMP280;54354;44.724;11.284;2023-08-08T00:12:03;101544.84;;;26.04
67509;BMP280;54354;44.724;11.284;2023-08-08T00:14:29;101542.63;;;26.03
67509;BMP280;54354;44.724;11.284;2023-08-08T00:16:55;101542.63;;;26.03
67509;BMP280;54354;44.724;11.284;2023-08-08T00:19:20;101549.31;;;26.02
67509;BMP280;54354;44.724;11.284;2023-08-08T00:21:45;101544.38;;;26.00
67509;BMP280;54354;44.724;11.284;2023-08-08T00:24:11;101545.38;;;25.97
67509;BMP280;54354;44.724;11.284;2023-08-08T00:26:36;101535.50;;;25.94
67509;BMP280;54354;44.724;11.284;2023-08-08T00:29:02;101540.19;;;25.94
67509;BMP280;54354;44.724;11.284;2023-08-08T00:31:28;101546.13;;;25.92
67509;BMP280;54354;44.724;11.284;2023-08-08T00:33:53;101545.88;;;25.90
67509;BMP280;54354;44.724;11.284;2023-08-08T00:36:19;101549.59;;;25.87
67509;BMP280;54354;44.724;11.284;2023-08-08T00:38:44;101552.56;;;25.84
67509;BMP280;54354;44.724;11.284;2023-08-08T00:41:09;101547.16;;;25.84
67509;BMP280;54354;44.724;11.284;2023-08-08T00:43:35;101553.03;;;25.82
67509;BMP280;54354;44.724;11.284;2023-08-08T00:46:00;101553.56;;;25.80
67509;BMP280;54354;44.724;11.284;2023-08-08T00:48:26;101550.88;;;25.80
67509;BMP280;54354;44.724;11.284;2023-08-08T00:50:52;101553.06;;;25.76
67509;BMP280;54354;44.724;11.284;2023-08-08T00:53:18;101556.28;;;25.75
67509;BMP280;54354;44.724;11.284;2023-08-08T00:55:45;101550.88;;;25.69
67509;BMP280;54354;44.724;11.284;2023-08-08T00:58:12;101552.59;;;25.67
67509;BMP280;54354;44.724;11.284;2023-08-08T01:00:38;101561.97;;;25.66
67509;BMP280;54354;44.724;11.284;2023-08-08T01:03:04;101552.84;;;25.63
67509;BMP280;54354;44.724;11.284;2023-08-08T01:05:35;101551.13;;;25.55
67509;BMP280;54354;44.724;11.284;2023-08-08T01:08:07;101546.44;;;25.55
67509;BMP280;54354;44.724;11.284;2023-08-08T01:10:39;101555.81;;;25.60
67509;BMP280;54354;44.724;11.284;2023-08-08T01:13:13;101562.50;;;25.53
67509;BMP280;54354;44.724;11.284;2023-08-08T01:15:40;101568.66;;;25.59
67509;BMP280;54354;44.724;11.284;2023-08-08T01:18:07;101560.25;;;25.52
67509;BMP280;54354;44.724;11.284;2023-08-08T01:20:34;101548.41;;;25.49
67509;BMP280;54354;44.724;11.284;2023-08-08T01:25:56;101541.78;;;25.50
67509;BMP280;54354;44.724;11.284;2023-08-08T01:28:23;101536.59;;;25.46
67509;BMP280;54354;44.724;11.284;2023-08-08T01:30:49;101547.19;;;25.44
67509;BMP280;54354;44.724;11.284;2023-08-08T01:33:14;101542.78;;;25.41
67509;BMP280;54354;44.724;11.284;2023-08-08T01:35:44;101529.97;;;25.36
67509;BMP280;54354;44.724;11.284;2023-08-08T01:38:15;101535.09;;;25.34
67509;BMP280;54354;44.724;11.284;2023-08-08T01:40:43;101538.09;;;25.36
67509;BMP280;54354;44.724;11.284;2023-08-08T01:43:09;101541.03;;;25.38
67509;BMP280;54354;44.724;11.284;2023-08-08T01:45:36;101532.41;;;25.34
67509;BMP280;54354;44.724;11.284;2023-08-08T01:48:09;101533.63;;;25.28
67509;BMP280;54354;44.724;11.284;2023-08-08T01:50:36;101532.41;;;25.29
67509;BMP280;54354;44.724;11.284;2023-08-08T01:53:02;101541.03;;;25.27
67509;BMP280;54354;44.724;11.284;2023-08-08T01:55:27;101546.47;;;25.27
67509;BMP280;54354;44.724;11.284;2023-08-08T01:57:53;101548.91;;;25.25
67509;BMP280;54354;44.724;11.284;2023-08-08T02:00:18;101549.66;;;25.26
67509;BMP280;54354;44.724;11.284;2023-08-08T02:02:44;101546.94;;;25.26
67509;BMP280;54354;44.724;11.284;2023-08-08T02:05:10;101552.38;;;25.26
67509;BMP280;54354;44.724;11.284;2023-08-08T02:07:36;101544.25;;;25.26
67509;BMP280;54354;44.724;11.284;2023-08-08T02:10:01;101547.94;;;25.23
67509;BMP280;54354;44.724;11.284;2023-08-08T02:12:27;101544.97;;;25.21
67509;BMP280;54354;44.724;11.284;2023-08-08T02:14:54;101544.25;;;25.14
67509;BMP280;54354;44.724;11.284;2023-08-08T02:17:20;101549.41;;;25.12
67509;BMP280;54354;44.724;11.284;2023-08-08T02:19:46;101555.09;;;25.14
67509;BMP280;54354;44.724;11.284;2023-08-08T02:22:12;101545.69;;;25.10
67509;BMP280;54354;44.724;11.284;2023-08-08T02:24:38;101552.84;;;25.07
67509;BMP280;54354;44.724;11.284;2023-08-08T02:27:04;101561.47;;;25.06
67509;BMP280;54354;44.724;11.284;2023-08-08T02:29:30;101556.78;;;25.01
67509;BMP280;54354;44.724;11.284;2023-08-08T02:31:59;101566.38;;;24.96
67509;BMP280;54354;44.724;11.284;2023-08-08T02:34:25;101576.25;;;24.94
67509;BMP280;54354;44.724;11.284;2023-08-08T02:36:50;101571.81;;;24.91
67509;BMP280;54354;44.724;11.284;2023-08-08T02:39:16;101580.41;;;24.89
67509;BMP280;54354;44.724;11.284;2023-08-08T02:41:42;101577.94;;;24.85
67509;BMP280;54354;44.724;11.284;2023-08-08T02:44:08;101578.19;;;24.82
67509;BMP280;54354;44.724;11.284;2023-08-08T02:46:33;101582.13;;;24.81
67509;BMP280;54354;44.724;11.284;2023-08-08T02:48:59;101585.06;;;24.77
67509;BMP280;54354;44.724;11.284;2023-08-08T02:51:26;101577.63;;;24.72
67509;BMP280;54354;44.724;11.284;2023-08-08T02:53:51;101575.91;;;24.69
67509;BMP280;54354;44.724;11.284;2023-08-08T02:56:17;101578.84;;;24.66
67509;BMP280;54354;44.724;11.284;2023-08-08T02:58:43;101581.56;;;24.66
67509;BMP280;54354;44.724;11.284;2023-08-08T03:01:08;101582.06;;;24.64
67509;BMP280;54354;44.724;11.284;2023-08-08T03:03:35;101578.81;;;24.60
67509;BMP280;54354;44.724;11.284;2023-08-08T03:06:01;101575.63;;;24.56
67509;BMP280;54354;44.724;11.284;2023-08-08T03:08:28;101581.75;;;24.56
67509;BMP280;54354;44.724;11.284;2023-08-08T03:10:55;101579.06;;;24.56
67509;BMP280;54354;44.724;11.284;2023-08-08T03:13:24;101583.25;;;24.57
67509;BMP280;54354;44.724;11.284;2023-08-08T03:15:50;101582.28;;;24.55
67509;BMP280;54354;44.724;11.284;2023-08-08T03:18:16;101585.44;;;24.53
67509;BMP280;54354;44.724;11.284;2023-08-08T03:20:42;101582.97;;;24.50
67509;BMP280;54354;44.724;11.284;2023-08-08T03:23:08;101587.41;;;24.47
67509;BMP280;54354;44.724;11.284;2023-08-08T03:25:35;101576.31;;;24.45
67509;BMP280;54354;44.724;11.284;2023-08-08T03:28:01;101569.44;;;24.44
67509;BMP280;54354;44.724;11.284;2023-08-08T03:30:27;101565.25;;;24.43
67509;BMP280;54354;44.724;11.284;2023-08-08T03:32:53;101555.88;;;24.44
67509;BMP280;54354;44.724;11.284;2023-08-08T03:35:19;101561.31;;;24.44
67509;BMP280;54354;44.724;11.284;2023-08-08T03:37:44;101563.97;;;24.39
67509;BMP280;54354;44.724;11.284;2023-08-08T03:40:11;101568.38;;;24.36
67509;BMP280;54354;44.724;11.284;2023-08-08T03:42:39;101573.59;;;24.34
67509;BMP280;54354;44.724;11.284;2023-08-08T03:45:05;101576.97;;;24.29
67509;BMP280;54354;44.724;11.284;2023-08-08T03:47:31;101578.94;;;24.28
67509;BMP280;54354;44.724;11.284;2023-08-08T03:49:57;101585.09;;;24.29
67509;BMP280;54354;44.724;11.284;2023-08-08T03:52:23;101583.38;;;24.26
67509;BMP280;54354;44.724;11.284;2023-08-08T03:54:50;101583.38;;;24.26
67509;BMP280;54354;44.724;11.284;2023-08-08T03:57:16;101590.50;;;24.23
67509;BMP280;54354;44.724;11.284;2023-08-08T03:59:41;101588.53;;;24.24
67509;BMP280;54354;44.724;11.284;2023-08-08T04:02:07;101580.91;;;24.22
67509;BMP280;54354;44.724;11.284;2023-08-08T04:04:32;101582.59;;;24.20
67509;BMP280;54354;44.724;11.284;2023-08-08T04:06:58;101585.78;;;24.18
67509;BMP280;54354;44.724;11.284;2023-08-08T04:09:24;101584.53;;;24.14
67509;BMP280;54354;44.724;11.284;2023-08-08T04:11:49;101589.44;;;24.10
67509;BMP280;54354;44.724;11.284;2023-08-08T04:14:16;101593.81;;;24.07
67509;BMP280;54354;44.724;11.284;2023-08-08T04:16:41;101596.28;;;24.05
67509;BMP280;54354;44.724;11.284;2023-08-08T04:19:10;101595.53;;;23.99
67509;BMP280;54354;44.724;11.284;2023-08-08T04:21:35;101598.72;;;24.03
67509;BMP280;54354;44.724;11.284;2023-08-08T04:24:01;101594.28;;;24.00
67509;BMP280;54354;44.724;11.284;2023-08-08T04:26:27;101599.41;;;23.98
67509;BMP280;54354;44.724;11.284;2023-08-08T04:28:53;101597.94;;;23.97
67509;BMP280;54354;44.724;11.284;2023-08-08T04:31:19;101595.25;;;23.97
67509;BMP280;54354;44.724;11.284;2023-08-08T04:33:45;101586.88;;;23.95
67509;BMP280;54354;44.724;11.284;2023-08-08T04:36:10;101598.91;;;23.94
67509;BMP280;54354;44.724;11.284;2023-08-08T04:38:36;101598.47;;;23.95
67509;BMP280;54354;44.724;11.284;2023-08-08T04:41:01;101604.31;;;23.94
67509;BMP280;54354;44.724;11.284;2023-08-08T04:43:27;101596.69;;;23.92
67509;BMP280;54354;44.724;11.284;2023-08-08T04:45:53;101599.13;;;23.90
67509;BMP280;54354;44.724;11.284;2023-08-08T04:48:19;101593.72;;;23.90
67509;BMP280;54354;44.724;11.284;2023-08-08T04:50:47;101597.13;;;23.85
67509;BMP280;54354;44.724;11.284;2023-08-08T04:53:13;101599.88;;;23.91
67509;BMP280;54354;44.724;11.284;2023-08-08T04:55:38;101594.47;;;23.91
67509;BMP280;54354;44.724;11.284;2023-08-08T04:58:04;101592.03;;;23.93
67509;BMP280;54354;44.724;11.284;2023-08-08T05:00:30;101599.41;;;23.92
67509;BMP280;54354;44.724;11.284;2023-08-08T05:02:55;101602.84;;;23.93
67509;BMP280;54354;44.724;11.284;2023-08-08T05:05:21;101601.63;;;23.94
67509;BMP280;54354;44.724;11.284;2023-08-08T05:07:46;101607.28;;;23.96
67509;BMP280;54354;44.724;11.284;2023-08-08T05:10:12;101610.47;;;23.94
67509;BMP280;54354;44.724;11.284;2023-08-08T05:12:38;101619.59;;;23.97
67509;BMP280;54354;44.724;11.284;2023-08-08T05:15:05;101613.44;;;23.96
67509;BMP280;54354;44.724;11.284;2023-08-08T05:17:31;101609.75;;;24.00
67509;BMP280;54354;44.724;11.284;2023-08-08T05:19:59;101619.66;;;24.03
67509;BMP280;54354;44.724;11.284;2023-08-08T05:22:25;101627.25;;;24.04
67509;BMP280;54354;44.724;11.284;2023-08-08T05:24:50;101633.66;;;24.07
67509;BMP280;54354;44.724;11.284;2023-08-08T05:27:16;101631.47;;;24.05
67509;BMP280;54354;44.724;11.284;2023-08-08T05:29:41;101633.47;;;24.10
67509;BMP280;54354;44.724;11.284;2023-08-08T05:32:07;101630.00;;;24.10
67509;BMP280;54354;44.724;11.284;2023-08-08T05:34:34;101635.91;;;24.08
67509;BMP280;54354;44.724;11.284;2023-08-08T05:36:59;101636.66;;;24.09
67509;BMP280;54354;44.724;11.284;2023-08-08T05:39:25;101638.41;;;24.12
67509;BMP280;54354;44.724;11.284;2023-08-08T05:41:51;101629.81;;;24.13
67509;BMP280;54354;44.724;11.284;2023-08-08T05:44:17;101642.59;;;24.13
67509;BMP280;54354;44.724;11.284;2023-08-08T05:46:42;101636.19;;;24.16
67509;BMP280;54354;44.724;11.284;2023-08-08T05:49:08;101642.38;;;24.16
67509;BMP280;54354;44.724;11.284;2023-08-08T05:51:34;101647.56;;;24.20
67509;BMP280;54354;44.724;11.284;2023-08-08T05:53:59;101655.16;;;24.21
67509;BMP280;54354;44.724;11.284;2023-08-08T05:56:33;101653.72;;;24.20
67509;BMP280;54354;44.724;11.284;2023-08-08T05:58:59;101667.50;;;24.28
67509;BMP280;54354;44.724;11.284;2023-08-08T06:01:25;101673.22;;;24.30
67509;BMP280;54354;44.724;11.284;2023-08-08T06:03:51;101667.34;;;24.32
67509;BMP280;54354;44.724;11.284;2023-08-08T06:06:18;101676.91;;;24.33
67509;BMP280;54354;44.724;11.284;2023-08-08T06:08:44;101674.50;;;24.35
67509;BMP280;54354;44.724;11.284;2023-08-08T06:11:10;101676.69;;;24.36
67509;BMP280;54354;44.724;11.284;2023-08-08T06:13:36;101683.81;;;24.34
67509;BMP280;54354;44.724;11.284;2023-08-08T06:16:01;101694.44;;;24.37
67509;BMP280;54354;44.724;11.284;2023-08-08T06:18:34;101689.31;;;24.45
67509;BMP280;54354;44.724;11.284;2023-08-08T06:21:00;101671.09;;;24.45
67509;BMP280;54354;44.724;11.284;2023-08-08T06:23:26;101677.75;;;24.50
67509;BMP280;54354;44.724;11.284;2023-08-08T06:25:55;101677.28;;;24.57
67509;BMP280;54354;44.724;11.284;2023-08-08T06:28:21;101674.63;;;25.28
67509;BMP280;54354;44.724;11.284;2023-08-08T06:30:47;101683.88;;;24.93
67509;BMP280;54354;44.724;11.284;2023-08-08T06:33:12;101691.53;;;24.95
67509;BMP280;54354;44.724;11.284;2023-08-08T06:35:38;101700.19;;;25.04
67509;BMP280;54354;44.724;11.284;2023-08-08T06:38:04;101698.28;;;25.22
67509;BMP280;54354;44.724;11.284;2023-08-08T06:40:29;101703.75;;;25.38
67509;BMP280;54354;44.724;11.284;2023-08-08T06:42:55;101701.78;;;25.61
67509;BMP280;54354;44.724;11.284;2023-08-08T06:45:21;101694.16;;;25.76
67509;BMP280;54354;44.724;11.284;2023-08-08T06:47:47;101701.56;;;25.93
67509;BMP280;54354;44.724;11.284;2023-08-08T06:50:14;101708.22;;;26.08
67509;BMP280;54354;44.724;11.284;2023-08-08T06:52:39;101712.38;;;26.32
67509;BMP280;54354;44.724;11.284;2023-08-08T06:55:05;101696.81;;;26.43
67509;BMP280;54354;44.724;11.284;2023-08-08T06:57:33;101694.00;;;26.66
67509;BMP280;54354;44.724;11.284;2023-08-08T06:59:59;101703.09;;;27.26
67509;BMP280;54354;44.724;11.284;2023-08-08T07:02:25;101707.22;;;27.98
67509;BMP280;54354;44.724;11.284;2023-08-08T07:04:50;101710.06;;;28.55
67509;BMP280;54354;44.724;11.284;2023-08-08T07:07:16;101701.22;;;28.86
67509;BMP280;54354;44.724;11.284;2023-08-08T07:09:41;101697.59;;;28.97
67509;BMP280;54354;44.724;11.284;2023-08-08T07:12:07;101695.63;;;28.97
67509;BMP280;54354;44.724;11.284;2023-08-08T07:14:33;101702.53;;;28.98
67509;BMP280;54354;44.724;11.284;2023-08-08T07:16:58;101708.84;;;29.25
67509;BMP280;54354;44.724;11.284;2023-08-08T07:19:24;101706.50;;;29.61
67509;BMP280;54354;44.724;11.284;2023-08-08T07:21:50;101698.47;;;30.09
67509;BMP280;54354;44.724;11.284;2023-08-08T07:24:16;101697.53;;;30.53
67509;BMP280;54354;44.724;11.284;2023-08-08T07:26:42;101693.91;;;30.92
67509;BMP280;54354;44.724;11.284;2023-08-08T07:29:07;101699.59;;;31.36
67509;BMP280;54354;44.724;11.284;2023-08-08T07:31:33;101704.41;;;31.79
67509;BMP280;54354;44.724;11.284;2023-08-08T07:33:59;101707.91;;;32.23
67509;BMP280;54354;44.724;11.284;2023-08-08T07:36:25;101705.59;;;32.66
67509;BMP280;54354;44.724;11.284;2023-08-08T07:38:50;101699.94;;;33.02
67509;BMP280;54354;44.724;11.284;2023-08-08T07:41:16;101700.88;;;33.35
67509;BMP280;54354;44.724;11.284;2023-08-08T07:43:43;101699.69;;;33.68
67509;BMP280;54354;44.724;11.284;2023-08-08T07:46:09;101701.19;;;34.01
67509;BMP280;54354;44.724;11.284;2023-08-08T07:48:34;101698.59;;;34.36
67509;BMP280;54354;44.724;11.284;2023-08-08T07:51:00;101697.78;;;34.68
67509;BMP280;54354;44.724;11.284;2023-08-08T07:53:26;101696.66;;;34.96
67509;BMP280;54354;44.724;11.284;2023-08-08T07:55:51;101704.72;;;35.19
67509;BMP280;54354;44.724;11.284;2023-08-08T07:58:17;101703.00;;;35.40
67509;BMP280;54354;44.724;11.284;2023-08-08T08:00:42;101696.34;;;35.61
67509;BMP280;54354;44.724;11.284;2023-08-08T08:03:09;101697.75;;;35.79
67509;BMP280;54354;44.724;11.284;2023-08-08T08:05:35;101697.72;;;35.96
67509;BMP280;54354;44.724;11.284;2023-08-08T08:08:01;101694.72;;;36.11
67509;BMP280;54354;44.724;11.284;2023-08-08T08:10:27;101701.16;;;36.24
67509;BMP280;54354;44.724;11.284;2023-08-08T08:12:53;101700.03;;;36.36
67509;BMP280;54354;44.724;11.284;2023-08-08T08:15:24;101692.28;;;36.52
67509;BMP280;54354;44.724;11.284;2023-08-08T08:17:49;101696.22;;;36.68
67509;BMP280;54354;44.724;11.284;2023-08-08T08:20:15;101701.03;;;36.87
67509;BMP280;54354;44.724;11.284;2023-08-08T08:22:41;101687.78;;;37.05
67509;BMP280;54354;44.724;11.284;2023-08-08T08:25:07;101699.13;;;37.18
67509;BMP280;54354;44.724;11.284;2023-08-08T08:27:36;101691.88;;;37.33
67509;BMP280;54354;44.724;11.284;2023-08-08T08:30:06;101697.22;;;37.40
67509;BMP280;54354;44.724;11.284;2023-08-08T08:32:38;101700.88;;;37.43
67509;BMP280;54354;44.724;11.284;2023-08-08T08:35:04;101701.00;;;37.54
67509;BMP280;54354;44.724;11.284;2023-08-08T08:37:33;101693.53;;;37.67
67509;BMP280;54354;44.724;11.284;2023-08-08T08:39:59;101691.47;;;37.77
67509;BMP280;54354;44.724;11.284;2023-08-08T08:42:26;101687.53;;;37.80
67509;BMP280;54354;44.724;11.284;2023-08-08T08:44:55;101686.97;;;37.72
67509;BMP280;54354;44.724;11.284;2023-08-08T08:47:23;101683.97;;;37.48
67509;BMP280;54354;44.724;11.284;2023-08-08T08:49:49;101686.78;;;37.10
67509;BMP280;54354;44.724;11.284;2023-08-08T08:52:17;101701.13;;;36.60
67509;BMP280;54354;44.724;11.284;2023-08-08T08:54:42;101692.25;;;36.15
67509;BMP280;54354;44.724;11.284;2023-08-08T08:57:08;101697.75;;;35.79
67509;BMP280;54354;44.724;11.284;2023-08-08T08:59:35;101701.38;;;35.55
67509;BMP280;54354;44.724;11.284;2023-08-08T09:08:35;101698.81;;;34.80
67509;BMP280;54354;44.724;11.284;2023-08-08T09:11:00;101697.69;;;34.58
67509;BMP280;54354;44.724;11.284;2023-08-08T09:13:26;101700.78;;;34.37
67509;BMP280;54354;44.724;11.284;2023-08-08T09:15:52;101690.44;;;34.21
67509;BMP280;54354;44.724;11.284;2023-08-08T09:18:18;101688.34;;;34.04
67509;BMP280;54354;44.724;11.284;2023-08-08T09:20:48;101683.31;;;33.85
67509;BMP280;54354;44.724;11.284;2023-08-08T09:23:14;101697.66;;;33.76
67509;BMP280;54354;44.724;11.284;2023-08-08T09:25:39;101696.03;;;33.65
67509;BMP280;54354;44.724;11.284;2023-08-08T09:28:05;101695.84;;;33.56
67509;BMP280;54354;44.724;11.284;2023-08-08T09:30:31;101690.38;;;33.48
67509;BMP280;54354;44.724;11.284;2023-08-08T09:33:02;101679.06;;;33.37
67509;BMP280;54354;44.724;11.284;2023-08-08T09:35:28;101682.91;;;33.33
67509;BMP280;54354;44.724;11.284;2023-08-08T09:37:55;101684.75;;;33.31
67509;BMP280;54354;44.724;11.284;2023-08-08T09:40:22;101674.13;;;33.27
67509;BMP280;54354;44.724;11.284;2023-08-08T09:42:47;101679.81;;;33.29
67509;BMP280;54354;44.724;11.284;2023-08-08T09:45:14;101675.56;;;33.36
67509;BMP280;54354;44.724;11.284;2023-08-08T09:47:39;101679.56;;;33.43
67509;BMP280;54354;44.724;11.284;2023-08-08T09:50:06;101672.06;;;33.43
67509;BMP280;54354;44.724;11.284;2023-08-08T09:52:33;101666.78;;;33.38
67509;BMP280;54354;44.724;11.284;2023-08-08T09:54:59;101671.19;;;33.41
67509;BMP280;54354;44.724;11.284;2023-08-08T09:57:25;101674.47;;;33.39
67509;BMP280;54354;44.724;11.284;2023-08-08T09:59:51;101672.66;;;33.42
67509;BMP280;54354;44.724;11.284;2023-08-08T10:02:17;101666.78;;;33.38
67509;BMP280;54354;44.724;11.284;2023-08-08T10:04:45;101656.94;;;33.35
67509;BMP280;54354;44.724;11.284;2023-08-08T10:07:11;101666.78;;;33.38
67509;BMP280;54354;44.724;11.284;2023-08-08T10:09:37;101657.09;;;33.37
67509;BMP280;54354;44.724;11.284;2023-08-08T10:12:06;101652.38;;;33.29
67509;BMP280;54354;44.724;11.284;2023-08-08T10:14:35;101651.63;;;33.29
67509;BMP280;54354;44.724;11.284;2023-08-08T10:17:05;101651.63;;;33.29
67509;BMP280;54354;44.724;11.284;2023-08-08T10:19:32;101659.09;;;33.36
67509;BMP280;54354;44.724;11.284;2023-08-08T10:22:02;101640.47;;;33.27
67509;BMP280;54354;44.724;11.284;2023-08-08T10:24:35;101640.44;;;33.19
67509;BMP280;54354;44.724;11.284;2023-08-08T10:27:02;101640.28;;;33.17
67509;BMP280;54354;44.724;11.284;2023-08-08T10:29:31;101649.44;;;33.12
67509;BMP280;54354;44.724;11.284;2023-08-08T10:32:01;101651.84;;;33.08
67509;BMP280;54354;44.724;11.284;2023-08-08T10:34:42;101645.97;;;33.04
67509;BMP280;54354;44.724;11.284;2023-08-08T10:37:15;101652.56;;;33.01
67509;BMP280;54354;44.724;11.284;2023-08-08T10:40:10;101658.25;;;33.11
67509;BMP280;54354;44.724;11.284;2023-08-08T10:42:43;101641.78;;;32.95
67509;BMP280;54354;44.724;11.284;2023-08-08T10:45:12;101641.41;;;32.91
67509;BMP280;54354;44.724;11.284;2023-08-08T10:47:41;101652.22;;;32.89
67509;BMP280;54354;44.724;11.284;2023-08-08T10:50:11;101645.25;;;32.81
67509;BMP280;54354;44.724;11.284;2023-08-08T10:52:49;101646.00;;;32.81
67509;BMP280;54354;44.724;11.284;2023-08-08T10:55:30;101641.63;;;32.78
67509;BMP280;54354;44.724;11.284;2023-08-08T10:58:05;101639.22;;;32.75
67509;BMP280;54354;44.724;11.284;2023-08-08T11:00:33;101634.47;;;32.68
67509;BMP280;54354;44.724;11.284;2023-08-08T11:03:00;101633.75;;;32.67
67509;BMP280;54354;44.724;11.284;2023-08-08T11:05:29;101640.72;;;32.60
67509;BMP280;54354;44.724;11.284;2023-08-08T11:07:55;101634.47;;;32.60
67509;BMP280;54354;44.724;11.284;2023-08-08T11:10:21;101636.31;;;32.57
67509;BMP280;54354;44.724;11.284;2023-08-08T11:13:01;101630.28;;;32.51
67509;BMP280;54354;44.724;11.284;2023-08-08T11:15:28;101638.13;;;32.55
67509;BMP280;54354;44.724;11.284;2023-08-08T11:17:55;101629.19;;;32.54
67509;BMP280;54354;44.724;11.284;2023-08-08T11:20:25;101637.03;;;32.50
67509;BMP280;54354;44.724;11.284;2023-08-08T11:22:55;101624.94;;;32.53
67509;BMP280;54354;44.724;11.284;2023-08-08T11:25:21;101621.13;;;32.49
67509;BMP280;54354;44.724;11.284;2023-08-08T11:27:53;101617.28;;;32.44
67509;BMP280;54354;44.724;11.284;2023-08-08T11:30:20;101614.19;;;32.48
67509;BMP280;54354;44.724;11.284;2023-08-08T11:32:48;101607.78;;;32.45
67509;BMP280;54354;44.724;11.284;2023-08-08T11:35:20;101605.41;;;32.49
67509;BMP280;54354;44.724;11.284;2023-08-08T11:37:47;101605.97;;;32.55
67509;BMP280;54354;44.724;11.284;2023-08-08T11:40:14;101603.00;;;32.53
67509;BMP280;54354;44.724;11.284;2023-08-08T11:42:41;101597.00;;;32.55
67509;BMP280;54354;44.724;11.284;2023-08-08T11:45:10;101592.94;;;32.48
67509;BMP280;54354;44.724;11.284;2023-08-08T11:47:37;101585.84;;;32.53
67509;BMP280;54354;44.724;11.284;2023-08-08T11:50:04;101589.50;;;32.55
67509;BMP280;54354;44.724;11.284;2023-08-08T11:52:30;101590.59;;;32.60
67509;BMP280;54354;44.724;11.284;2023-08-08T11:54:57;101583.84;;;32.61
67509;BMP280;54354;44.724;11.284;2023-08-08T11:57:23;101581.81;;;32.61
67509;BMP280;54354;44.724;11.284;2023-08-08T11:59:49;101585.28;;;32.62
67509;BMP280;54354;44.724;11.284;2023-08-08T12:02:15;101575.78;;;32.63
67509;BMP280;54354;44.724;11.284;2023-08-08T12:04:45;101577.44;;;32.58
67509;BMP280;54354;44.724;11.284;2023-08-08T12:07:11;101581.44;;;32.65
67509;BMP280;54354;44.724;11.284;2023-08-08T12:09:37;101576.31;;;32.61
67509;BMP280;54354;44.724;11.284;2023-08-08T12:12:03;101575.03;;;32.62
67509;BMP280;54354;44.724;11.284;2023-08-08T12:14:29;101572.31;;;32.62
67509;BMP280;54354;44.724;11.284;2023-08-08T12:16:55;101571.03;;;32.63
67509;BMP280;54354;44.724;11.284;2023-08-08T12:19:24;101563.72;;;32.58
67509;BMP280;54354;44.724;11.284;2023-08-08T12:21:53;101551.63;;;32.61
67509;BMP280;54354;44.724;11.284;2023-08-08T12:24:18;101563.34;;;32.62
67509;BMP280;54354;44.724;11.284;2023-08-08T12:26:44;101551.47;;;32.59
67509;BMP280;54354;44.724;11.284;2023-08-08T12:29:10;101558.94;;;32.59
67509;BMP280;54354;44.724;11.284;2023-08-08T12:31:35;101556.41;;;32.61
67509;BMP280;54354;44.724;11.284;2023-08-08T12:34:01;101550.19;;;32.60
67509;BMP280;54354;44.724;11.284;2023-08-08T12:36:26;101551.63;;;32.61
67509;BMP280;54354;44.724;11.284;2023-08-08T12:38:52;101540.47;;;32.59
67509;BMP280;54354;44.724;11.284;2023-08-08T12:41:17;101536.81;;;32.57
67509;BMP280;54354;44.724;11.284;2023-08-08T12:43:43;101545.25;;;32.59
67509;BMP280;54354;44.724;11.284;2023-08-08T12:46:09;101539.97;;;32.61
67509;BMP280;54354;44.724;11.284;2023-08-08T12:48:34;101541.59;;;32.64
67509;BMP280;54354;44.724;11.284;2023-08-08T12:51:00;101536.81;;;32.64
67509;BMP280;54354;44.724;11.284;2023-08-08T12:53:25;101537.56;;;32.65
67509;BMP280;54354;44.724;11.284;2023-08-08T12:55:51;101541.94;;;32.68
67509;BMP280;54354;44.724;11.284;2023-08-08T12:58:17;101533.00;;;32.68
67509;BMP280;54354;44.724;11.284;2023-08-08T13:00:43;101545.41;;;32.69
67509;BMP280;54354;44.724;11.284;2023-08-08T13:03:08;101538.84;;;32.72
67509;BMP280;54354;44.724;11.284;2023-08-08T13:05:35;101538.09;;;32.71
67509;BMP280;54354;44.724;11.284;2023-08-08T13:08:01;101534.81;;;32.73
67509;BMP280;54354;44.724;11.284;2023-08-08T13:10:26;101532.22;;;32.75
67509;BMP280;54354;44.724;11.284;2023-08-08T13:12:52;101534.09;;;32.72
67509;BMP280;54354;44.724;11.284;2023-08-08T13:15:17;101522.38;;;32.72
67509;BMP280;54354;44.724;11.284;2023-08-08T13:17:43;101525.13;;;32.72
67509;BMP280;54354;44.724;11.284;2023-08-08T13:20:09;101523.09;;;32.72
67509;BMP280;54354;44.724;11.284;2023-08-08T13:22:35;101521.66;;;32.71
67509;BMP280;54354;44.724;11.284;2023-08-08T13:25:00;101525.13;;;32.72
67509;BMP280;54354;44.724;11.284;2023-08-08T13:27:26;101522.94;;;32.70
67509;BMP280;54354;44.724;11.284;2023-08-08T13:29:52;101524.94;;;32.70
67509;BMP280;54354;44.724;11.284;2023-08-08T13:32:17;101522.94;;;32.70
67509;BMP280;54354;44.724;11.284;2023-08-08T13:34:43;101517.44;;;32.70
67509;BMP280;54354;44.724;11.284;2023-08-08T13:37:08;101516.34;;;32.73
67509;BMP280;54354;44.724;11.284;2023-08-08T13:39:34;101508.84;;;32.74
67509;BMP280;54354;44.724;11.284;2023-08-08T13:41:59;101511.75;;;32.76
67509;BMP280;54354;44.724;11.284;2023-08-08T13:44:25;101510.09;;;32.80
67509;BMP280;54354;44.724;11.284;2023-08-08T13:46:50;101504.22;;;32.84
67509;BMP280;54354;44.724;11.284;2023-08-08T13:49:16;101501.16;;;32.87
67509;BMP280;54354;44.724;11.284;2023-08-08T13:51:42;101504.22;;;32.91